»·PEaware :: N161AC KSBA-KREI

N161AC :: KSBA-KREI

FLIGHT INFORMATION

Flight Status: Arrived
Operator: Privately registered:
United States
More flights under this callsign
Pilot: Sean J. (16955)
Aircraft: Unknown
(DA62)
More flights by this aircraft type
Origin: KSBA Santa Barbara Mun
United States
Destination: KREI Redlands Mun
United States
More flights between these airports :: More routes between these airports
Route: KWANG5 KWANG CMA VNY V186 PDZ
File this flight plan on PilotEdge
Remarks: TEC route SBAP16
Altitude:
(Current/Filed)
5,000ft
Speed:
(Current/Filed)
150kts
Departed: 09-Feb-19 02:41 PM
Arrived: 09-Feb-19 03:44 PM
Distance/Time
Traveled:
135nm/1:02
Distance/Time
To Go:
Arrived

Flight Plot

Page will automatically refresh every two minutes.

Flight plan parsing failed; only flown route is shown


Map Options




Map Legend


Flown Route
Filed Route
Departure Airport
Arrival Airport
Navaid (VOR, NDB)
Fix

Horizontal Profiles

Position Reports

Time Latitude Longitude Heading Altitude Ground
Speed
09-Feb-19 14:13 34.432563 -119.834581 252 13ft 0kts
09-Feb-19 14:14 34.432563 -119.834581 252 13ft 0kts
09-Feb-19 14:15 34.432563 -119.834581 252 13ft 0kts
09-Feb-19 14:16 34.432563 -119.834581 252 13ft 0kts
09-Feb-19 14:17 34.432563 -119.834581 252 13ft 0kts
09-Feb-19 14:18 34.432563 -119.834581 252 13ft 0kts
09-Feb-19 14:19 34.432563 -119.834581 252 13ft 0kts
09-Feb-19 14:20 34.432563 -119.834582 252 13ft 0kts
09-Feb-19 14:21 34.432562 -119.834582 252 13ft 0kts
09-Feb-19 14:22 34.432562 -119.834583 252 13ft 0kts
09-Feb-19 14:23 34.432562 -119.834584 252 13ft 0kts
09-Feb-19 14:24 34.432562 -119.834584 252 13ft 0kts
09-Feb-19 14:25 34.432562 -119.834584 252 13ft 0kts
09-Feb-19 14:26 34.432562 -119.834585 252 13ft 0kts
09-Feb-19 14:27 34.432562 -119.834585 252 13ft 0kts
09-Feb-19 14:28 34.432561 -119.834586 252 13ft 0kts
09-Feb-19 14:29 34.432561 -119.834587 252 13ft 0kts
09-Feb-19 14:30 34.432561 -119.834587 252 13ft 0kts
09-Feb-19 14:31 34.432561 -119.834587 252 13ft 0kts
09-Feb-19 14:32 34.432561 -119.834587 252 13ft 0kts
09-Feb-19 14:33 34.432561 -119.834587 252 13ft 0kts
09-Feb-19 14:34 34.432561 -119.834587 252 13ft 0kts
09-Feb-19 14:35 34.432561 -119.834587 252 13ft 0kts
09-Feb-19 14:36 34.432561 -119.834587 252 13ft 0kts
09-Feb-19 14:37 34.432349 -119.834934 216 13ft 11kts
09-Feb-19 14:38 34.428654 -119.835264 180 13ft 0kts
09-Feb-19 14:39 34.428644 -119.835264 180 13ft 1kts
09-Feb-19 14:40 34.427528 -119.852178 269 206ft 102kts
09-Feb-19 14:41 34.414556 -119.882412 200 940ft 119kts
09-Feb-19 14:42 34.389761 -119.863846 102 1742ft 127kts
09-Feb-19 14:43 34.385998 -119.824240 84 2771ft 117kts
09-Feb-19 14:44 34.389724 -119.781293 82 3009ft 143kts
09-Feb-19 14:45 34.391978 -119.731785 104 3009ft 152kts
09-Feb-19 14:46 34.376834 -119.688263 115 3594ft 123kts
09-Feb-19 14:47 34.360054 -119.653005 118 4232ft 120kts
09-Feb-19 14:48 34.345448 -119.615344 113 4996ft 128kts
09-Feb-19 14:49 34.329549 -119.570957 113 5018ft 155kts
09-Feb-19 14:50 34.311875 -119.521794 113 5020ft 161kts
09-Feb-19 14:51 34.301003 -119.478609 104 5009ft 163kts
09-Feb-19 14:52 34.288913 -119.425670 105 5002ft 162kts
09-Feb-19 14:53 34.276816 -119.372868 105 5002ft 162kts
09-Feb-19 14:54 34.264760 -119.320316 105 5002ft 162kts
09-Feb-19 14:55 34.252608 -119.267641 105 5002ft 162kts
09-Feb-19 14:56 34.241330 -119.218686 105 4993ft 166kts
09-Feb-19 14:57 34.228905 -119.164960 105 4993ft 165kts
09-Feb-19 14:58 34.216639 -119.111953 105 4992ft 162kts
09-Feb-19 14:59 34.213228 -119.058397 87 5002ft 161kts
09-Feb-19 15:00 34.214278 -119.004376 88 5002ft 161kts
09-Feb-19 15:01 34.215381 -118.949227 88 4995ft 166kts
09-Feb-19 15:02 34.216451 -118.894304 87 5012ft 160kts
09-Feb-19 15:03 34.217478 -118.839391 88 4943ft 164kts
09-Feb-19 15:04 34.218467 -118.786073 87 5003ft 160kts
09-Feb-19 15:05 34.219436 -118.732322 87 5002ft 159kts
09-Feb-19 15:06 34.220259 -118.683790 88 5005ft 161kts
09-Feb-19 15:07 34.221213 -118.629991 88 5042ft 158kts
09-Feb-19 15:08 34.222131 -118.576780 88 5042ft 160kts
09-Feb-19 15:09 34.223012 -118.521759 88 5020ft 166kts
09-Feb-19 15:10 34.216671 -118.468876 111 5006ft 168kts
09-Feb-19 15:11 34.200926 -118.417306 109 5022ft 167kts
09-Feb-19 15:12 34.185154 -118.365346 109 5021ft 164kts
09-Feb-19 15:13 34.169517 -118.313800 109 5019ft 162kts
09-Feb-19 15:14 34.154182 -118.263446 109 5018ft 161kts
09-Feb-19 15:15 34.138409 -118.211773 109 5022ft 166kts
09-Feb-19 15:16 34.122707 -118.160336 109 5029ft 161kts
09-Feb-19 15:17 34.109602 -118.117498 109 5040ft 164kts
09-Feb-19 15:18 34.093733 -118.065718 109 5025ft 168kts
09-Feb-19 15:19 34.077853 -118.014068 109 5032ft 162kts
09-Feb-19 15:20 34.062403 -117.963809 109 5037ft 162kts
09-Feb-19 15:21 34.046640 -117.912605 109 5037ft 163kts
09-Feb-19 15:22 34.031099 -117.862250 109 5035ft 161kts
09-Feb-19 15:23 34.015189 -117.810764 109 5049ft 166kts
09-Feb-19 15:24 33.998951 -117.758355 109 5033ft 166kts
09-Feb-19 15:25 33.980761 -117.706883 112 5031ft 167kts
09-Feb-19 15:26 33.963027 -117.656567 112 5033ft 160kts
09-Feb-19 15:27 33.945874 -117.607887 112 5032ft 160kts
09-Feb-19 15:28 33.933633 -117.557502 101 4833ft 143kts
09-Feb-19 15:29 33.924416 -117.508893 101 4841ft 159kts
09-Feb-19 15:30 33.914479 -117.456219 101 4842ft 162kts
09-Feb-19 15:31 33.904548 -117.403563 101 4842ft 160kts
09-Feb-19 15:32 33.894669 -117.351141 101 4841ft 160kts
09-Feb-19 15:33 33.908133 -117.306054 41 4854ft 160kts
09-Feb-19 15:34 33.940621 -117.269506 41 4841ft 158kts
09-Feb-19 15:35 33.972948 -117.233103 41 4843ft 159kts
09-Feb-19 15:36 34.005520 -117.196904 41 4524ft 164kts
09-Feb-19 15:37 34.035349 -117.163018 41 3925ft 142kts
09-Feb-19 15:38 34.066196 -117.147028 356 3005ft 141kts
09-Feb-19 15:39 34.101391 -117.140979 59 2417ft 120kts
09-Feb-19 15:40 34.095803 -117.106057 105 2324ft 100kts
09-Feb-19 15:41 34.084083 -117.115492 287 2107ft 106kts
09-Feb-19 15:42 34.085284 -117.146008 269 1575ft 64kts
09-Feb-19 15:43 34.084179 -117.149862 180 1574ft 0kts
09-Feb-19 15:44 34.084179 -117.149862 180 1574ft 0kts

Navigation Log

Ident Type
Flight plan parsing failed, navigation log unavailable